createdAt,value
2019-03-06T00:04:23.764Z,96489.69
2019-03-06T00:06:49.585Z,96495.69
2019-03-06T00:09:15.405Z,96488.34
2019-03-06T00:11:41.219Z,96485.92
2019-03-06T00:14:07.023Z,96489.56
2019-03-06T00:16:32.862Z,96483.80
2019-03-06T00:18:58.674Z,96489.22
2019-03-06T00:21:26.403Z,96486.29
2019-03-06T00:23:52.246Z,96492.05
2019-03-06T00:26:18.064Z,96494.02
2019-03-06T00:28:43.890Z,96497.28
2019-03-06T00:31:09.698Z,96494.72
2019-03-06T00:33:35.539Z,96497.73
2019-03-06T00:36:23.334Z,96483.55
2019-03-06T00:38:49.176Z,96483.55
2019-03-06T00:46:56.372Z,96496.85
2019-03-06T00:49:22.213Z,96497.11
2019-03-06T00:51:48.139Z,96492.41
2019-03-06T00:54:13.950Z,96498.98
2019-03-06T00:56:39.774Z,96496.13
2019-03-06T00:59:05.590Z,96488.52
2019-03-06T01:01:31.399Z,96488.02
2019-03-06T01:03:57.247Z,96485.73
2019-03-06T01:07:04.721Z,96484.72
2019-03-06T01:09:30.560Z,96484.74
2019-03-06T01:11:56.384Z,96483.96
2019-03-06T01:14:24.114Z,96482.66
2019-03-06T01:16:49.952Z,96483.98
2019-03-06T01:19:15.786Z,96485.82
2019-03-06T01:21:41.600Z,96478.24
2019-03-06T01:24:07.465Z,96467.50
2019-03-06T01:26:33.293Z,96473.17
2019-03-06T01:28:59.113Z,96458.03
2019-03-06T01:31:24.949Z,96471.87
2019-03-06T01:39:51.714Z,96475.16
2019-03-06T01:42:37.509Z,96473.27
2019-03-06T01:45:44.981Z,96468.82
2019-03-06T01:48:11.109Z,96464.20
2019-03-06T01:50:36.944Z,96463.73
2019-03-06T01:53:02.774Z,96457.70
2019-03-06T01:55:48.586Z,96456.95
2019-03-06T01:58:14.438Z,96455.42
2019-03-06T02:01:21.921Z,96445.00
2019-03-06T02:03:47.752Z,96447.84
2019-03-06T02:06:15.471Z,96452.83
2019-03-06T02:08:41.301Z,96451.25
2019-03-06T02:11:07.122Z,96447.23
2019-03-06T02:13:33.051Z,96448.73
2019-03-06T02:15:58.882Z,96449.73
2019-03-06T02:18:24.745Z,96455.15
2019-03-06T02:20:50.587Z,96445.53
2019-03-06T02:23:16.417Z,96443.75
2019-03-06T02:25:42.248Z,96443.28
2019-03-06T02:28:08.102Z,96437.81
2019-03-06T02:30:33.932Z,96431.37
2019-03-06T02:33:19.730Z,96436.06
2019-03-06T02:35:45.564Z,96435.45
2019-03-06T02:38:11.395Z,96450.17
2019-03-06T02:40:37.256Z,96441.17
2019-03-06T02:43:03.085Z,96442.25
2019-03-06T02:45:28.928Z,96443.56
2019-03-06T02:47:54.757Z,96443.31
2019-03-06T02:50:20.691Z,96437.59
2019-03-06T02:52:46.518Z,96432.45
2019-03-06T02:55:53.983Z,96442.44
2019-03-06T02:58:39.788Z,96441.69
2019-03-06T03:01:25.500Z,96444.30
2019-03-06T03:04:11.217Z,96439.83
2019-03-06T03:09:31.070Z,96432.02
2019-03-06T03:11:56.897Z,96440.55
2019-03-06T03:14:22.715Z,96435.45
2019-03-06T03:16:48.560Z,96437.81
2019-03-06T03:19:14.382Z,96439.95
2019-03-06T03:24:12.114Z,96438.72
2019-03-06T03:26:37.934Z,96432.20
2019-03-06T03:29:23.715Z,96426.78
2019-03-06T03:31:49.541Z,96420.27
2019-03-06T03:34:15.350Z,96414.78
2019-03-06T03:36:41.161Z,96411.94
2019-03-06T03:39:48.661Z,96420.05
2019-03-06T03:42:56.170Z,96406.82
2019-03-06T03:45:41.866Z,96407.14
2019-03-06T03:48:27.875Z,96407.14
2019-03-06T03:50:53.686Z,96396.20
2019-03-06T03:53:19.530Z,96401.42
2019-03-06T03:55:45.367Z,96401.38
2019-03-06T03:58:11.177Z,96409.53
2019-03-06T04:00:38.888Z,96400.62
2019-03-06T04:03:04.701Z,96387.34
2019-03-06T04:05:30.501Z,96376.66
2019-03-06T04:07:56.341Z,96383.94
2019-03-06T04:10:22.155Z,96388.85
2019-03-06T04:12:47.956Z,96396.69
2019-03-06T04:15:55.434Z,96400.30
2019-03-06T04:18:21.295Z,96400.92
2019-03-06T04:20:47.072Z,96397.88
2019-03-06T04:23:14.776Z,96397.53
2019-03-06T04:25:40.591Z,96405.91
2019-03-06T04:28:06.408Z,96403.80
2019-03-06T04:30:32.231Z,96402.59
2019-03-06T04:32:58.049Z,96398.70
2019-03-06T04:35:23.877Z,96398.27
2019-03-06T04:37:49.703Z,96399.04
2019-03-06T04:40:17.432Z,96401.19
2019-03-06T04:42:43.261Z,96407.45
2019-03-06T04:45:28.952Z,96411.59
2019-03-06T04:47:54.757Z,96406.62
2019-03-06T04:50:20.583Z,96414.97
2019-03-06T04:52:46.399Z,96405.31
2019-03-06T04:55:53.868Z,96398.54
2019-03-06T04:58:19.795Z,96406.56
2019-03-06T05:00:45.646Z,96420.38
2019-03-06T05:03:11.450Z,96426.05
2019-03-06T05:05:37.303Z,96420.10
2019-03-06T05:08:03.125Z,96417.26
2019-03-06T05:10:28.949Z,96422.20
2019-03-06T05:12:54.776Z,96419.58
2019-03-06T05:15:20.600Z,96423.28
2019-03-06T05:18:06.308Z,96422.30
2019-03-06T05:20:32.124Z,96411.35
2019-03-06T05:22:57.963Z,96420.26
2019-03-06T05:25:23.787Z,96416.58
2019-03-06T05:27:49.628Z,96409.50
2019-03-06T05:33:44.459Z,96393.14
2019-03-06T05:36:51.935Z,96396.91
2019-03-06T05:39:17.763Z,96393.77
2019-03-06T05:41:43.596Z,96387.52
2019-03-06T05:44:09.440Z,96388.85
2019-03-06T05:46:35.256Z,96382.80
2019-03-06T05:49:01.079Z,96389.47
2019-03-06T05:51:26.890Z,96392.50
2019-03-06T05:53:52.728Z,96387.28
2019-03-06T05:56:18.564Z,96383.14
2019-03-06T05:58:44.446Z,96383.17
2019-03-06T06:01:10.253Z,96382.33
2019-03-06T06:03:36.061Z,96384.92
2019-03-06T06:06:03.798Z,96385.55
2019-03-06T06:08:29.597Z,96385.85
2019-03-06T06:10:55.424Z,96373.11
2019-03-06T06:13:21.245Z,96367.70
2019-03-06T06:18:18.821Z,96356.75
2019-03-06T06:23:41.730Z,96366.36
2019-03-06T06:26:07.556Z,96367.17
2019-03-06T06:28:33.472Z,96366.92
2019-03-06T06:30:59.302Z,96369.97
2019-03-06T06:33:25.133Z,96361.30
2019-03-06T06:35:50.961Z,96364.19
2019-03-06T06:38:16.776Z,96371.48
2019-03-06T06:40:42.589Z,96375.34
2019-03-06T06:43:08.413Z,96387.28
2019-03-06T06:45:34.262Z,96375.96
2019-03-06T06:48:21.175Z,96374.44
2019-03-06T06:51:28.663Z,96377.77
2019-03-06T06:54:34.238Z,96374.41
2019-03-06T06:57:39.833Z,96376.02
2019-03-06T07:01:05.277Z,96375.05
2019-03-06T07:04:31.022Z,96377.77
2019-03-06T07:07:16.723Z,96396.98
2019-03-06T07:15:48.665Z,96370.77
2019-03-06T07:18:34.383Z,96372.04
2019-03-06T07:24:07.426Z,96356.64
2019-03-06T07:26:53.116Z,96350.77
2019-03-06T07:34:53.534Z,96335.75
2019-03-06T07:37:39.236Z,96333.63
2019-03-06T07:40:46.722Z,96324.27
2019-03-06T07:46:06.104Z,96307.20
2019-03-06T07:48:51.828Z,96310.09
2019-03-06T07:51:37.514Z,96310.72
2019-03-06T07:54:45.201Z,96302.48
2019-03-06T07:59:58.384Z,96305.56
2019-03-06T08:03:03.941Z,96323.98
2019-03-06T08:05:29.768Z,96319.71
2019-03-06T08:07:55.605Z,96312.17
2019-03-06T08:13:15.346Z,96305.38
2019-03-06T08:16:01.056Z,96306.57
2019-03-06T08:21:34.099Z,96293.86
2019-03-06T08:24:19.864Z,96291.05
2019-03-06T08:29:52.883Z,96292.97
2019-03-06T08:35:47.692Z,96297.44
2019-03-06T08:38:13.604Z,96290.33
2019-03-06T08:40:39.591Z,96283.67
2019-03-06T08:43:05.638Z,96281.19
2019-03-06T08:45:51.504Z,96284.56
2019-03-06T08:48:37.222Z,96286.42
2019-03-06T08:51:42.900Z,96285.41
2019-03-06T08:54:28.689Z,96283.14
2019-03-06T08:57:14.426Z,96281.24
2019-03-06T09:00:00.327Z,96268.68
2019-03-06T09:03:06.131Z,96281.11
2019-03-06T09:06:13.600Z,96272.02
2019-03-06T09:11:32.826Z,96268.59
2019-03-06T09:14:38.587Z,96262.26
2019-03-06T09:20:36.159Z,96258.36
2019-03-06T09:23:23.201Z,96258.36
2019-03-06T09:31:31.660Z,96257.16
2019-03-06T09:34:17.362Z,96253.17
2019-03-06T09:37:03.053Z,96245.91
2019-03-06T09:39:48.790Z,96240.49
2019-03-06T09:42:34.497Z,96232.59
2019-03-06T09:45:20.234Z,96244.98
2019-03-06T09:48:25.901Z,96243.44
2019-03-06T09:51:11.599Z,96239.60
2019-03-06T09:53:57.292Z,96232.00
2019-03-06T09:57:02.901Z,96223.43
2019-03-06T09:59:47.287Z,96212.63
2019-03-06T10:02:33.052Z,96212.63
2019-03-06T10:05:18.774Z,96218.77
2019-03-06T10:08:04.466Z,96223.52
2019-03-06T10:10:57.273Z,96220.80
2019-03-06T10:13:42.049Z,96214.55
2019-03-06T10:16:48.851Z,96210.36
2019-03-06T10:19:32.880Z,96210.36
2019-03-06T10:22:18.606Z,96204.17
2019-03-06T10:24:44.517Z,96204.17
2019-03-06T10:27:10.376Z,96193.08
2019-03-06T10:29:36.191Z,96203.57
2019-03-06T10:32:02.024Z,96200.86
2019-03-06T10:34:29.758Z,96197.76
2019-03-06T10:36:55.605Z,96190.13
2019-03-06T10:39:21.438Z,96199.17
2019-03-06T10:41:47.253Z,96198.88
2019-03-06T10:44:14.991Z,96193.22
2019-03-06T10:46:40.803Z,96184.78
2019-03-06T10:49:06.642Z,96186.38
2019-03-06T10:51:32.469Z,96177.48
2019-03-06T10:53:58.309Z,96193.55
2019-03-06T10:57:05.778Z,96177.84
2019-03-06T10:59:44.840Z,96169.81
2019-03-06T11:02:24.013Z,96171.92
2019-03-06T11:05:05.026Z,96166.31
2019-03-06T11:07:50.836Z,96166.31
2019-03-06T11:10:58.316Z,96156.17
2019-03-06T11:13:44.028Z,96155.12
2019-03-06T11:16:51.849Z,96155.12
2019-03-06T11:19:59.549Z,96161.63
2019-03-06T11:22:25.505Z,96152.50
2019-03-06T11:25:11.303Z,96136.42
2019-03-06T11:27:56.993Z,96112.70
2019-03-06T11:31:04.498Z,96112.70
2019-03-06T11:33:50.192Z,96099.72
2019-03-06T11:36:57.710Z,96099.72
2019-03-06T11:40:05.183Z,96090.87
2019-03-06T11:42:31.022Z,96076.37
2019-03-06T11:44:56.834Z,96063.77
2019-03-06T11:47:42.658Z,96062.22
2019-03-06T11:50:50.129Z,96055.39
2019-03-06T11:53:35.834Z,96044.09
2019-03-06T11:56:43.302Z,96044.09
2019-03-06T11:59:22.229Z,96040.56
2019-03-06T12:02:29.740Z,96040.56
2019-03-06T12:05:37.207Z,96045.09
2019-03-06T12:08:23.141Z,96030.31
2019-03-06T12:11:08.853Z,96034.67
2019-03-06T12:13:54.661Z,96034.67
2019-03-06T12:16:42.013Z,96035.59
2019-03-06T12:19:08.115Z,96035.59
2019-03-06T12:21:33.933Z,96026.73
2019-03-06T12:23:59.892Z,96030.40
2019-03-06T12:26:47.507Z,96009.92
2019-03-06T12:29:13.346Z,96009.92
2019-03-06T12:32:20.828Z,96014.22
2019-03-06T12:34:46.662Z,96004.58
2019-03-06T12:37:12.488Z,95982.45
2019-03-06T12:39:38.323Z,95999.16
2019-03-06T12:42:04.246Z,95981.91
2019-03-06T12:44:30.184Z,95990.15
2019-03-06T12:47:39.549Z,95983.07
2019-03-06T12:50:55.335Z,95954.75
2019-03-06T12:53:14.753Z,95954.75
2019-03-06T12:55:40.580Z,95959.52
2019-03-06T12:58:06.400Z,95949.86
2019-03-06T13:00:34.231Z,95949.08
2019-03-06T13:03:00.051Z,95939.55
2019-03-06T13:06:07.511Z,95952.66
2019-03-06T13:08:53.314Z,95932.95
2019-03-06T13:11:19.160Z,95932.95
2019-03-06T13:14:04.943Z,95934.23
2019-03-06T13:16:30.790Z,95923.53
2019-03-06T13:18:56.815Z,95905.38
2019-03-06T13:21:22.648Z,95901.00
2019-03-06T13:23:48.498Z,95889.03
2019-03-06T13:26:14.315Z,95893.77
2019-03-06T13:28:40.150Z,95882.09
2019-03-06T13:34:13.220Z,95874.47
2019-03-06T13:36:59.030Z,95879.15
2019-03-06T13:39:24.858Z,95879.15
2019-03-06T13:41:52.578Z,95871.09
2019-03-06T13:44:19.098Z,95864.86
2019-03-06T13:46:46.170Z,95858.80
2019-03-06T13:49:12.011Z,95858.01
2019-03-06T13:51:37.822Z,95852.34
2019-03-06T13:54:45.299Z,95834.98
2019-03-06T13:57:52.799Z,95828.80
2019-03-06T14:01:00.278Z,95829.56
2019-03-06T14:03:26.221Z,95815.70
2019-03-06T14:05:52.039Z,95815.36
2019-03-06T14:08:19.772Z,95820.62
2019-03-06T14:10:45.608Z,95819.73
2019-03-06T14:13:11.420Z,95822.47
2019-03-06T14:15:37.260Z,95812.53
2019-03-06T14:18:44.721Z,95803.55
2019-03-06T14:21:10.573Z,95805.45
2019-03-06T14:23:36.413Z,95789.25
2019-03-06T14:26:43.893Z,95794.70
2019-03-06T14:29:51.410Z,95785.09
2019-03-06T14:32:59.080Z,95787.60
2019-03-06T14:36:06.556Z,95781.23
2019-03-06T14:38:52.367Z,95776.63
2019-03-06T14:41:18.249Z,95773.22
2019-03-06T14:43:44.132Z,95773.58
2019-03-06T14:46:51.596Z,95766.37
2019-03-06T14:49:17.422Z,95760.32
2019-03-06T14:51:50.633Z,95750.17
2019-03-06T14:54:16.463Z,95740.02
2019-03-06T14:59:14.652Z,95731.00
2019-03-06T15:01:40.486Z,95737.89
2019-03-06T15:04:06.299Z,95738.70
2019-03-06T15:06:32.136Z,95736.62
2019-03-06T15:08:59.862Z,95734.11
2019-03-06T15:11:32.971Z,95735.34
2019-03-06T15:13:53.434Z,95726.63
2019-03-06T15:16:19.239Z,95711.80
2019-03-06T15:18:45.098Z,95720.67
2019-03-06T15:21:10.971Z,95714.90
2019-03-06T15:23:36.814Z,95714.55
2019-03-06T15:26:02.716Z,95703.23
2019-03-06T15:28:30.449Z,95705.83
2019-03-06T15:30:56.264Z,95706.12
2019-03-06T15:33:22.084Z,95701.30
2019-03-06T15:35:47.902Z,95690.44
2019-03-06T15:38:13.713Z,95698.70
2019-03-06T15:41:21.183Z,95688.25
2019-03-06T15:43:47.030Z,95685.40
2019-03-06T15:46:32.818Z,95682.08
2019-03-06T15:49:18.718Z,95682.63
2019-03-06T15:52:04.912Z,95672.66
2019-03-06T15:54:30.746Z,95672.66
2019-03-06T15:56:56.661Z,95663.86
2019-03-06T15:59:22.829Z,95673.57
2019-03-06T16:02:30.317Z,95678.72
2019-03-06T16:04:56.153Z,95682.28
2019-03-06T16:07:21.956Z,95674.34
2019-03-06T16:10:29.447Z,95672.78
2019-03-06T16:12:55.368Z,95669.31
2019-03-06T16:16:04.760Z,95665.55
2019-03-06T16:21:57.786Z,95643.16
2019-03-06T16:24:23.610Z,95643.16
2019-03-06T16:26:49.430Z,95640.79
2019-03-06T16:29:15.257Z,95657.39
2019-03-06T16:32:22.741Z,95648.73
2019-03-06T16:35:08.443Z,95647.89
2019-03-06T16:37:54.243Z,95649.63
2019-03-06T16:41:01.722Z,95649.70
2019-03-06T16:43:27.558Z,95651.24
2019-03-06T16:46:13.415Z,95642.68
2019-03-06T16:48:39.251Z,95643.61
2019-03-06T16:51:46.750Z,95637.67
2019-03-06T16:54:32.661Z,95625.11
2019-03-06T16:56:58.509Z,95625.11
2019-03-06T16:59:24.360Z,95625.00
2019-03-06T17:01:50.271Z,95626.33
2019-03-06T17:04:16.108Z,95624.23
2019-03-06T17:06:43.870Z,95615.44
2019-03-06T17:09:09.716Z,95615.44
2019-03-06T17:11:35.541Z,95611.95
2019-03-06T17:14:01.391Z,95616.55
2019-03-06T17:16:27.222Z,95613.06
2019-03-06T17:19:34.720Z,95605.18
2019-03-06T17:22:42.205Z,95610.59
2019-03-06T17:25:28.448Z,95592.71
2019-03-06T17:28:14.227Z,95601.72
2019-03-06T17:31:21.726Z,95601.72
2019-03-06T17:33:47.561Z,95596.33
2019-03-06T17:36:13.378Z,95590.22
2019-03-06T17:38:39.325Z,95592.27
2019-03-06T17:41:07.067Z,95587.84
2019-03-06T17:43:32.914Z,95576.02
2019-03-06T17:45:58.764Z,95585.04
2019-03-06T17:48:24.582Z,95576.52
2019-03-06T17:51:32.062Z,95566.20
2019-03-06T17:53:57.938Z,95565.22
2019-03-06T17:56:23.752Z,95556.79
2019-03-06T17:58:49.600Z,95570.10
2019-03-06T18:07:06.151Z,95561.72
2019-03-06T18:09:32.522Z,95565.64
2019-03-06T18:12:20.126Z,95557.17
2019-03-06T18:15:27.642Z,95552.03
2019-03-06T18:17:53.479Z,95548.63
2019-03-06T18:20:19.312Z,95548.63
2019-03-06T18:22:45.233Z,95552.68
2019-03-06T18:25:52.701Z,95553.59
2019-03-06T18:28:38.423Z,95546.33
2019-03-06T18:31:24.136Z,95546.91
2019-03-06T18:34:10.049Z,95543.14
2019-03-06T18:36:35.908Z,95534.05
2019-03-06T18:39:43.374Z,95534.05
2019-03-06T18:42:09.207Z,95545.33
2019-03-06T18:44:35.026Z,95553.16
2019-03-06T18:47:00.861Z,95551.27
2019-03-06T18:49:26.694Z,95549.42
2019-03-06T18:51:52.538Z,95545.02
2019-03-06T18:54:18.369Z,95538.84
2019-03-06T18:57:06.043Z,95534.15
2019-03-06T18:59:31.898Z,95534.15
2019-03-06T19:01:57.754Z,95521.55
2019-03-06T19:04:23.601Z,95525.91
2019-03-06T19:06:49.462Z,95518.66
2019-03-06T19:09:15.314Z,95510.20
2019-03-06T19:11:43.179Z,95507.98
2019-03-06T19:14:09.042Z,95498.85
2019-03-06T19:16:34.876Z,95507.91
2019-03-06T19:19:00.717Z,95508.34
2019-03-06T19:21:26.657Z,95508.45
2019-03-06T19:23:52.533Z,95506.85
2019-03-06T19:26:18.411Z,95503.02
2019-03-06T19:28:44.284Z,95498.52
2019-03-06T19:31:12.151Z,95494.44
2019-03-06T19:33:38.046Z,95494.77
2019-03-06T19:36:03.882Z,95494.61
2019-03-06T19:38:29.810Z,95490.67
2019-03-06T19:40:55.662Z,95485.04
2019-03-06T19:43:22.631Z,95478.91
2019-03-06T19:46:09.347Z,95470.03
2019-03-06T19:48:35.248Z,95476.17
2019-03-06T19:51:01.147Z,95474.20
2019-03-06T19:53:27.037Z,95462.98
2019-03-06T19:55:52.906Z,95460.13
2019-03-06T19:58:18.824Z,95454.73
2019-03-06T20:03:22.046Z,95447.38
2019-03-06T20:06:29.587Z,95444.43
2019-03-06T20:09:35.295Z,95424.62
2019-03-06T20:12:21.178Z,95424.62
2019-03-06T20:15:07.858Z,95439.16
2019-03-06T20:17:53.644Z,95437.41
2019-03-06T20:20:19.698Z,95437.41
2019-03-06T20:23:27.225Z,95437.36
2019-03-06T20:25:53.179Z,95435.16
2019-03-06T20:28:39.058Z,95425.77
2019-03-06T20:31:05.110Z,95422.06
2019-03-06T20:33:50.999Z,95412.70
2019-03-06T20:36:36.835Z,95421.54
2019-03-06T20:39:44.682Z,95421.54
2019-03-06T20:42:30.689Z,95415.38
2019-03-06T20:45:38.214Z,95418.93
2019-03-06T20:48:23.991Z,95419.61
2019-03-06T20:51:09.789Z,95417.06
2019-03-06T20:53:35.684Z,95417.06
2019-03-06T20:56:01.602Z,95414.46
2019-03-06T20:58:27.538Z,95414.66
2019-03-06T21:00:53.468Z,95412.25
2019-03-06T21:03:41.103Z,95402.08
2019-03-06T21:06:06.981Z,95402.08
2019-03-06T21:08:32.872Z,95409.08
2019-03-06T21:10:58.762Z,95412.37
2019-03-06T21:13:24.746Z,95402.20
2019-03-06T21:15:50.629Z,95402.26
2019-03-06T21:18:16.502Z,95398.88
2019-03-06T21:21:02.346Z,95389.34
2019-03-06T21:23:28.251Z,95380.54
2019-03-06T21:25:54.159Z,95382.75
2019-03-06T21:28:20.040Z,95381.12
2019-03-06T21:33:33.288Z,95370.62
2019-03-06T21:35:59.130Z,95375.89
2019-03-06T21:38:24.969Z,95377.83
2019-03-06T21:40:50.816Z,95367.13
2019-03-06T21:43:16.694Z,95372.66
2019-03-06T21:45:42.585Z,95352.88
2019-03-06T21:48:08.521Z,95369.43
2019-03-06T21:50:34.389Z,95369.56
2019-03-06T21:53:00.239Z,95371.78
2019-03-06T21:55:48.320Z,95369.83
2019-03-06T21:58:14.227Z,95369.83
2019-03-06T22:00:40.073Z,95375.39
2019-03-06T22:03:05.921Z,95371.69
2019-03-06T22:05:32.155Z,95370.73
2019-03-06T22:07:58.003Z,95368.48
2019-03-06T22:10:45.612Z,95350.48
2019-03-06T22:13:11.815Z,95350.48
2019-03-06T22:15:37.663Z,95362.48
2019-03-06T22:18:03.498Z,95360.31
2019-03-06T22:20:29.357Z,95359.61
2019-03-06T22:22:57.086Z,95361.09
2019-03-06T22:26:04.549Z,95362.42
2019-03-06T22:28:50.250Z,95352.51
2019-03-06T22:31:35.959Z,95352.84
2019-03-06T22:34:21.690Z,95354.13
2019-03-06T22:36:47.811Z,95354.13
2019-03-06T22:39:13.646Z,95350.38
2019-03-06T22:41:39.474Z,95350.55
2019-03-06T22:44:05.315Z,95344.80
2019-03-06T22:46:31.126Z,95342.14
2019-03-06T22:48:56.953Z,95331.00
2019-03-06T22:51:22.774Z,95334.70
2019-03-06T22:56:42.046Z,95328.34
2019-03-06T22:59:07.888Z,95326.77
2019-03-06T23:02:15.364Z,95329.87
2019-03-06T23:05:01.067Z,95336.73
2019-03-06T23:07:26.897Z,95336.73
2019-03-06T23:09:52.729Z,95336.23
2019-03-06T23:12:18.539Z,95338.08
2019-03-06T23:14:44.385Z,95345.75
2019-03-06T23:17:10.207Z,95333.11
2019-03-06T23:19:36.050Z,95327.50
2019-03-06T23:22:01.860Z,95334.28
2019-03-06T23:24:27.698Z,95339.38
2019-03-06T23:26:53.502Z,95332.73
2019-03-06T23:29:21.251Z,95327.86
2019-03-06T23:31:47.056Z,95340.64
2019-03-06T23:34:12.884Z,95344.84
2019-03-06T23:36:38.768Z,95335.13
2019-03-06T23:39:46.259Z,95334.97
2019-03-06T23:42:12.091Z,95316.48
2019-03-06T23:44:37.945Z,95285.00
2019-03-06T23:47:03.775Z,95281.28
2019-03-06T23:49:29.595Z,95292.99
2019-03-06T23:54:52.524Z,95271.22
2019-03-06T23:57:31.308Z,95285.72
2019-03-06T23:59:57.152Z,95285.72
